DAUU/OGX METAR and TAF weather

Enter ICAO airport designator
Station Type Date Time Source
DAUU METAR 2021/09/28 04:00 UTC NOAA

DAUU 280400Z 34007KT CAVOK 24/05 Q1014


Station Type Date Time Source
DAUU Decoded METAR 2021/09/28 04:00 UTC NOAA

Ouargla, Algeria (DAUU) 31-55N 005-24E 141M
Sep 28, 2021 - 12:00 AM EDT / 2021.09.28 0400 UTC
Wind: from the NNW (340 degrees) at 8 MPH (7 KT):0
Visibility: greater than 7 mile(s):0
Temperature: 75 F (24 C)
Dew Point: 41 F (5 C)
Relative Humidity: 29%
Pressure (altimeter): 29.94 in. Hg (1014 hPa)
ob: DAUU 280400Z 34007KT CAVOK 24/05 Q1014
cycle: 4

Station Type Date Time Source
DAUU TAF 2017/11/09 18:03 UTC NOAA

TAF DAUU 091700Z 0918/1009 34012KT 9999 FEW040 SCT100 PROB40
TEMPO 0918/0924 34015G25KT 5000 -TSRA FEW036CB

Example: see airport list